createdAt,value
2023-02-09T00:00:37.143Z,29.78
2023-02-09T00:01:58.404Z,29.03
2023-02-09T00:03:19.726Z,28.71
2023-02-09T00:04:41.158Z,27.20
2023-02-09T00:06:03.470Z,27.27
2023-02-09T00:07:24.840Z,27.46
2023-02-09T00:08:46.205Z,28.43
2023-02-09T00:10:08.047Z,28.60
2023-02-09T00:11:29.918Z,28.43
2023-02-09T00:12:50.879Z,28.12
2023-02-09T00:14:12.755Z,26.88
2023-02-09T00:15:34.123Z,29.81
2023-02-09T00:16:55.828Z,31.84
2023-02-09T00:18:16.942Z,31.57
2023-02-09T00:19:37.904Z,33.54
2023-02-09T00:21:01.094Z,34.45
2023-02-09T00:22:22.327Z,34.83
2023-02-09T00:23:43.383Z,35.64
2023-02-09T00:25:04.954Z,34.66
2023-02-09T00:26:26.004Z,32.46
2023-02-09T00:27:47.328Z,32.03
2023-02-09T00:29:08.470Z,32.08
2023-02-09T00:30:29.937Z,48.83
2023-02-09T00:31:51.072Z,37.81
2023-02-09T00:33:12.328Z,35.02
2023-02-09T00:34:33.944Z,31.95
2023-02-09T00:35:55.374Z,30.58
2023-02-09T00:37:16.415Z,31.77
2023-02-09T00:38:37.827Z,32.40
2023-02-09T00:39:59.155Z,30.90
2023-02-09T00:41:20.522Z,33.03
2023-02-09T00:42:41.989Z,33.46
2023-02-09T00:44:03.174Z,35.93
2023-02-09T00:45:24.493Z,34.74
2023-02-09T00:46:45.615Z,32.82
2023-02-09T00:48:06.744Z,32.94
2023-02-09T00:49:28.615Z,33.15
2023-02-09T00:50:50.651Z,32.48
2023-02-09T00:52:13.225Z,25.18
2023-02-09T00:53:34.372Z,31.22
2023-02-09T00:54:55.781Z,31.54
2023-02-09T00:56:16.885Z,31.84
2023-02-09T00:57:38.049Z,32.94
2023-02-09T00:58:59.444Z,34.12
2023-02-09T01:00:20.965Z,33.39
2023-02-09T01:01:41.972Z,35.57
2023-02-09T01:03:03.474Z,36.25
2023-02-09T01:04:24.760Z,36.04
2023-02-09T01:05:46.076Z,36.52
2023-02-09T01:07:08.843Z,38.92
2023-02-09T01:08:41.915Z,36.79
2023-02-09T01:10:03.606Z,37.29
2023-02-09T01:11:24.853Z,37.69
2023-02-09T01:12:45.851Z,36.15
2023-02-09T01:14:06.852Z,35.66
2023-02-09T01:15:27.789Z,33.87
2023-02-09T01:16:48.725Z,34.14
2023-02-09T01:18:10.408Z,32.23
2023-02-09T01:19:31.423Z,32.56
2023-02-09T01:20:52.804Z,32.73
2023-02-09T01:22:13.997Z,32.37
2023-02-09T01:23:34.927Z,32.54
2023-02-09T01:24:55.804Z,32.62
2023-02-09T01:26:17.525Z,32.83
2023-02-09T01:27:38.764Z,34.36
2023-02-09T01:28:59.752Z,34.57
2023-02-09T01:30:21.293Z,34.54
2023-02-09T01:31:42.330Z,35.27
2023-02-09T01:33:03.666Z,36.34
2023-02-09T01:34:24.575Z,37.12
2023-02-09T01:35:45.587Z,36.36
2023-02-09T01:37:06.768Z,33.84
2023-02-09T01:38:28.159Z,34.68
2023-02-09T01:39:49.368Z,33.59
2023-02-09T01:41:10.828Z,33.37
2023-02-09T01:42:32.383Z,34.69
2023-02-09T01:44:01.588Z,35.48
2023-02-09T01:45:35.327Z,35.91
2023-02-09T01:46:56.385Z,37.17
2023-02-09T01:48:18.608Z,38.28
2023-02-09T01:49:39.931Z,38.10
2023-02-09T01:51:01.422Z,36.34
2023-02-09T01:52:24.799Z,34.81
2023-02-09T01:53:46.184Z,35.25
2023-02-09T01:55:09.414Z,34.93
2023-02-09T01:56:30.341Z,36.05
2023-02-09T01:57:54.792Z,36.55
2023-02-09T01:59:15.721Z,36.05
2023-02-09T02:00:36.708Z,34.84
2023-02-09T02:01:57.954Z,33.12
2023-02-09T02:03:20.792Z,33.89
2023-02-09T02:06:17.768Z,31.21
2023-02-09T02:07:44.808Z,33.69
2023-02-09T02:09:10.724Z,36.77
2023-02-09T02:10:31.759Z,37.67
2023-02-09T02:11:52.772Z,38.37
2023-02-09T02:13:14.460Z,37.91
2023-02-09T02:14:37.693Z,38.53
2023-02-09T02:16:11.504Z,36.57
2023-02-09T02:17:52.816Z,34.50
2023-02-09T02:19:49.112Z,32.23
2023-02-09T02:21:28.615Z,31.32
2023-02-09T02:23:09.806Z,31.32
2023-02-09T02:24:54.137Z,30.99
2023-02-09T02:26:43.503Z,29.92
2023-02-09T02:28:42.839Z,29.61
2023-02-09T02:30:35.431Z,30.28
2023-02-09T02:32:21.501Z,28.86
2023-02-09T02:33:44.971Z,29.15
2023-02-09T02:35:18.767Z,31.60
2023-02-09T02:37:00.835Z,35.03
2023-02-09T02:38:28.462Z,36.67
2023-02-09T02:39:53.644Z,39.55
2023-02-09T02:41:18.647Z,40.44
2023-02-09T02:43:01.409Z,38.98
2023-02-09T02:44:22.821Z,36.06
2023-02-09T02:45:56.629Z,34.59
2023-02-09T02:47:18.275Z,35.18
2023-02-09T02:48:42.232Z,32.48
2023-02-09T02:50:08.405Z,31.82
2023-02-09T02:51:43.752Z,31.61
2023-02-09T02:53:05.138Z,31.68
2023-02-09T02:54:28.789Z,31.82
2023-02-09T02:55:50.021Z,32.74
2023-02-09T02:57:14.439Z,33.16
2023-02-09T02:58:35.926Z,36.81
2023-02-09T03:00:00.141Z,34.03
2023-02-09T03:01:24.089Z,35.58
2023-02-09T03:02:49.566Z,32.13
2023-02-09T03:04:10.667Z,36.24
2023-02-09T03:05:32.168Z,34.64
2023-02-09T03:06:53.276Z,35.78
2023-02-09T03:08:14.489Z,35.22
2023-02-09T03:09:35.707Z,36.32
2023-02-09T03:10:56.786Z,36.42
2023-02-09T03:12:24.393Z,37.62
2023-02-09T03:13:51.825Z,39.01
2023-02-09T03:15:19.613Z,38.34
2023-02-09T03:16:45.864Z,36.81
2023-02-09T03:18:27.637Z,35.71
2023-02-09T03:21:18.885Z,29.01
2023-02-09T03:22:42.201Z,35.76
2023-02-09T03:24:22.438Z,33.46
2023-02-09T03:25:44.829Z,31.05
2023-02-09T03:28:36.081Z,29.42
2023-02-09T03:29:58.002Z,30.13
2023-02-09T03:31:19.104Z,30.72
2023-02-09T03:32:41.094Z,30.86
2023-02-09T03:34:02.055Z,32.32
2023-02-09T03:35:25.219Z,43.65
2023-02-09T03:36:51.950Z,37.00
2023-02-09T03:38:13.228Z,36.16
2023-02-09T03:39:34.228Z,37.14
2023-02-09T03:40:55.351Z,34.32
2023-02-09T03:42:16.539Z,34.89
2023-02-09T03:43:37.430Z,34.11
2023-02-09T03:44:58.425Z,37.11
2023-02-09T03:46:19.453Z,35.72
2023-02-09T03:47:40.574Z,34.66
2023-02-09T03:49:01.872Z,33.23
2023-02-09T03:50:22.934Z,34.50
2023-02-09T03:51:44.150Z,35.41
2023-02-09T03:53:05.722Z,32.91
2023-02-09T03:54:27.960Z,32.82
2023-02-09T03:55:49.281Z,32.47
2023-02-09T03:57:10.188Z,32.43
2023-02-09T03:58:31.162Z,30.74
2023-02-09T03:59:52.424Z,30.94
2023-02-09T04:01:13.457Z,32.42
2023-02-09T04:02:34.758Z,30.68
2023-02-09T04:03:56.085Z,32.08
2023-02-09T04:05:17.225Z,31.59
2023-02-09T04:06:39.337Z,34.09
2023-02-09T04:08:00.597Z,32.20
2023-02-09T04:09:22.181Z,34.14
2023-02-09T04:10:43.636Z,36.13
2023-02-09T04:12:05.437Z,35.46
2023-02-09T04:13:26.593Z,37.59
2023-02-09T04:14:48.149Z,37.00
2023-02-09T04:16:09.990Z,36.72
2023-02-09T04:17:31.173Z,37.29
2023-02-09T04:18:52.221Z,39.81
2023-02-09T04:20:13.762Z,41.67
2023-02-09T04:21:35.791Z,47.38
2023-02-09T04:22:56.662Z,47.16
2023-02-09T04:24:17.626Z,44.62
2023-02-09T04:25:39.125Z,46.88
2023-02-09T04:27:00.158Z,48.14
2023-02-09T04:28:21.346Z,43.01
2023-02-09T04:29:42.721Z,39.34
2023-02-09T04:31:04.016Z,37.28
2023-02-09T04:32:25.361Z,34.63
2023-02-09T04:33:46.318Z,38.16
2023-02-09T04:35:07.604Z,35.33
2023-02-09T04:36:28.804Z,35.18
2023-02-09T04:37:50.290Z,35.57
2023-02-09T04:39:11.683Z,35.87
2023-02-09T04:40:33.088Z,36.57
2023-02-09T04:41:54.062Z,39.13
2023-02-09T04:43:15.183Z,39.62
2023-02-09T04:44:36.429Z,39.00
2023-02-09T04:45:58.010Z,37.30
2023-02-09T04:47:19.253Z,36.38
2023-02-09T04:48:40.184Z,37.11
2023-02-09T04:51:14.610Z,38.44
2023-02-09T04:52:35.966Z,37.09
2023-02-09T04:53:57.683Z,36.77
2023-02-09T04:55:19.332Z,36.23
2023-02-09T04:56:40.902Z,37.85
2023-02-09T04:58:02.410Z,35.57
2023-02-09T04:59:24.846Z,35.09
2023-02-09T05:00:46.396Z,34.99
2023-02-09T05:02:07.967Z,36.82
2023-02-09T05:03:29.145Z,37.87
2023-02-09T05:04:50.348Z,38.17
2023-02-09T05:06:11.812Z,38.08
2023-02-09T05:07:32.972Z,40.58
2023-02-09T05:08:54.102Z,39.18
2023-02-09T05:10:16.412Z,40.11
2023-02-09T05:11:37.569Z,39.95
2023-02-09T05:12:58.957Z,44.03
2023-02-09T05:14:20.279Z,40.99
2023-02-09T05:15:41.376Z,41.73
2023-02-09T05:17:02.892Z,45.09
2023-02-09T05:18:25.796Z,42.49
2023-02-09T05:19:47.832Z,42.11
2023-02-09T05:21:09.410Z,42.65
2023-02-09T05:22:30.409Z,41.97
2023-02-09T05:23:51.889Z,43.21
2023-02-09T05:25:13.286Z,38.94
2023-02-09T05:26:34.440Z,39.31
2023-02-09T05:27:55.836Z,36.79
2023-02-09T05:29:17.273Z,40.37
2023-02-09T05:30:38.585Z,38.79
2023-02-09T05:31:59.797Z,39.15
2023-02-09T05:33:22.165Z,39.07
2023-02-09T05:34:43.158Z,38.74
2023-02-09T05:36:05.443Z,38.73
2023-02-09T05:37:26.467Z,37.18
2023-02-09T05:38:47.477Z,40.29
2023-02-09T05:40:09.129Z,45.21
2023-02-09T05:41:30.190Z,77.19
2023-02-09T05:42:52.053Z,61.84
2023-02-09T05:44:13.841Z,54.53
2023-02-09T05:45:34.957Z,49.94
2023-02-09T05:46:56.477Z,46.99
2023-02-09T05:48:17.667Z,45.99
2023-02-09T05:49:38.678Z,42.82
2023-02-09T05:51:00.161Z,43.08
2023-02-09T05:52:21.583Z,45.91
2023-02-09T05:53:42.899Z,42.81
2023-02-09T05:55:04.657Z,42.87
2023-02-09T05:56:25.693Z,40.66
2023-02-09T05:57:46.757Z,40.74
2023-02-09T05:59:08.231Z,37.92
2023-02-09T06:00:29.707Z,41.26
2023-02-09T06:01:50.667Z,44.60
2023-02-09T06:03:11.693Z,45.10
2023-02-09T06:04:33.028Z,46.11
2023-02-09T06:05:54.467Z,46.51
2023-02-09T06:07:16.365Z,48.28
2023-02-09T06:08:37.669Z,48.08
2023-02-09T06:09:58.893Z,50.33
2023-02-09T06:11:20.334Z,45.92
2023-02-09T06:12:41.738Z,47.44
2023-02-09T06:14:04.247Z,46.47
2023-02-09T06:15:25.367Z,46.21
2023-02-09T06:16:46.820Z,47.56
2023-02-09T06:18:08.438Z,46.81
2023-02-09T06:19:29.752Z,46.46
2023-02-09T06:20:52.642Z,45.22
2023-02-09T06:22:13.949Z,41.28
2023-02-09T06:23:35.522Z,38.86
2023-02-09T06:24:57.026Z,38.09
2023-02-09T06:26:18.343Z,37.03
2023-02-09T06:27:39.369Z,36.29
2023-02-09T06:29:00.716Z,37.09
2023-02-09T06:30:22.060Z,36.48
2023-02-09T06:31:43.242Z,37.80
2023-02-09T06:33:04.589Z,37.04
2023-02-09T06:34:25.842Z,46.17
2023-02-09T06:35:47.179Z,42.02
2023-02-09T06:37:08.614Z,42.44
2023-02-09T06:38:31.066Z,42.19
2023-02-09T06:39:52.065Z,42.92
2023-02-09T06:41:13.380Z,43.51
2023-02-09T06:42:34.896Z,45.60
2023-02-09T06:43:56.337Z,45.98
2023-02-09T06:45:17.662Z,43.47
2023-02-09T06:46:38.898Z,40.86
2023-02-09T06:48:00.039Z,41.33
2023-02-09T06:49:21.634Z,42.72
2023-02-09T06:50:43.236Z,40.72
2023-02-09T06:52:04.909Z,39.86
2023-02-09T06:53:27.423Z,42.83
2023-02-09T06:54:48.734Z,41.92
2023-02-09T06:56:11.193Z,44.77
2023-02-09T06:57:32.620Z,45.26
2023-02-09T06:58:53.981Z,41.84
2023-02-09T07:00:16.436Z,42.07
2023-02-09T07:01:38.021Z,49.38
2023-02-09T07:02:59.481Z,48.34
2023-02-09T07:05:40.309Z,39.02
2023-02-09T07:07:01.614Z,44.81
2023-02-09T07:08:22.705Z,45.51
2023-02-09T07:09:43.816Z,44.64
2023-02-09T07:12:17.790Z,49.40
2023-02-09T07:13:39.355Z,50.74
2023-02-09T07:15:00.238Z,45.62
2023-02-09T07:16:21.894Z,46.36
2023-02-09T07:17:46.635Z,43.32
2023-02-09T07:19:07.707Z,41.77
2023-02-09T07:20:43.027Z,40.67
2023-02-09T07:22:04.065Z,40.18
2023-02-09T07:23:26.181Z,39.61
2023-02-09T07:24:47.111Z,38.78
2023-02-09T07:26:11.603Z,38.73
2023-02-09T07:27:34.592Z,37.18
2023-02-09T07:28:55.780Z,39.23
2023-02-09T07:30:21.186Z,37.07
2023-02-09T07:31:42.297Z,39.22
2023-02-09T07:33:03.593Z,42.18
2023-02-09T07:34:25.137Z,41.09
2023-02-09T07:35:47.263Z,39.34
2023-02-09T07:37:08.222Z,39.62
2023-02-09T07:38:31.764Z,39.72
2023-02-09T07:39:52.961Z,42.63
2023-02-09T07:41:17.096Z,61.96
2023-02-09T07:42:38.339Z,73.57
2023-02-09T07:44:01.198Z,60.24
2023-02-09T07:45:22.346Z,45.27
2023-02-09T07:46:43.671Z,43.63
2023-02-09T07:48:04.768Z,48.34
2023-02-09T07:49:26.332Z,48.33
2023-02-09T07:50:48.768Z,49.93
2023-02-09T07:52:10.743Z,47.23
2023-02-09T07:53:32.563Z,49.35
2023-02-09T07:54:54.332Z,52.54
2023-02-09T07:56:15.990Z,62.64
2023-02-09T07:57:37.054Z,55.14
2023-02-09T07:58:58.368Z,57.28
2023-02-09T08:00:23.235Z,59.05
2023-02-09T08:01:44.224Z,61.06
2023-02-09T08:03:05.245Z,59.45
2023-02-09T08:04:26.361Z,56.08
2023-02-09T08:06:04.787Z,54.67
2023-02-09T08:07:30.189Z,56.02
2023-02-09T08:08:52.133Z,58.22
2023-02-09T08:10:17.110Z,55.29
2023-02-09T08:11:50.820Z,55.68
2023-02-09T08:14:36.410Z,47.96
2023-02-09T08:16:00.273Z,50.21
2023-02-09T08:17:21.589Z,52.56
2023-02-09T08:18:51.845Z,56.23
2023-02-09T08:20:15.709Z,54.78
2023-02-09T08:21:38.305Z,57.60
2023-02-09T08:23:02.729Z,54.38
2023-02-09T08:24:23.777Z,56.27
2023-02-09T08:25:45.170Z,55.42
2023-02-09T08:27:06.372Z,50.46
2023-02-09T08:28:42.867Z,52.49
2023-02-09T08:29:50.755Z,49.04
2023-02-09T08:32:31.660Z,33.43
2023-02-09T08:33:55.237Z,35.03
2023-02-09T08:35:16.274Z,33.70
2023-02-09T08:36:38.643Z,35.81
2023-02-09T08:38:00.744Z,36.24
2023-02-09T08:40:35.426Z,36.45
2023-02-09T08:41:57.114Z,36.45
2023-02-09T08:43:18.125Z,35.86
2023-02-09T08:44:39.502Z,33.06
2023-02-09T08:46:12.163Z,32.23
2023-02-09T08:47:34.207Z,25.39
2023-02-09T08:48:55.599Z,26.49
2023-02-09T08:50:16.953Z,29.33
2023-02-09T08:51:38.223Z,23.06
2023-02-09T08:52:59.548Z,24.69
2023-02-09T08:54:20.574Z,26.68
2023-02-09T08:55:41.804Z,26.52
2023-02-09T08:57:03.622Z,28.24
2023-02-09T08:58:25.436Z,24.84
2023-02-09T09:01:06.319Z,39.48
2023-02-09T09:02:28.757Z,25.52
2023-02-09T09:03:52.295Z,28.23
2023-02-09T09:05:14.938Z,23.80
2023-02-09T09:06:39.493Z,27.87
2023-02-09T09:08:01.321Z,32.34
2023-02-09T09:09:23.124Z,25.67
2023-02-09T09:10:45.323Z,20.59
2023-02-09T09:12:14.572Z,23.98
2023-02-09T09:13:36.876Z,23.76
2023-02-09T09:14:58.440Z,23.22
2023-02-09T09:16:21.434Z,22.48
2023-02-09T09:17:43.352Z,23.70
2023-02-09T09:19:06.218Z,24.29
2023-02-09T09:20:28.117Z,24.19
2023-02-09T09:21:49.449Z,23.96
2023-02-09T09:23:12.646Z,22.11
2023-02-09T09:24:35.084Z,22.20
2023-02-09T09:26:03.348Z,22.80
2023-02-09T09:27:26.978Z,23.66
2023-02-09T09:28:52.782Z,22.60
2023-02-09T09:30:15.781Z,21.61
2023-02-09T09:31:37.692Z,23.03
2023-02-09T09:33:04.080Z,23.03
2023-02-09T09:34:28.539Z,20.52
2023-02-09T09:35:52.844Z,20.73
2023-02-09T09:37:15.482Z,18.74
2023-02-09T09:38:38.373Z,21.94
2023-02-09T09:40:01.940Z,22.38
2023-02-09T09:42:50.961Z,20.66
2023-02-09T09:45:30.913Z,17.38
2023-02-09T09:46:52.054Z,21.43
2023-02-09T09:48:26.226Z,20.74
2023-02-09T09:49:48.230Z,20.46
2023-02-09T09:51:18.286Z,20.44
2023-02-09T09:52:40.599Z,19.60
2023-02-09T09:54:08.938Z,20.05
2023-02-09T09:55:30.454Z,21.84
2023-02-09T09:56:52.613Z,21.06
2023-02-09T09:58:16.372Z,19.57
2023-02-09T09:59:41.286Z,18.49
2023-02-09T10:01:02.990Z,27.06
2023-02-09T10:02:29.293Z,15.54
2023-02-09T10:03:50.893Z,18.72
2023-02-09T10:05:24.191Z,19.81
2023-02-09T10:06:47.372Z,18.91
2023-02-09T10:09:55.265Z,15.38
2023-02-09T10:11:18.128Z,14.88
2023-02-09T10:12:43.006Z,14.06
2023-02-09T10:14:04.397Z,15.91
2023-02-09T10:15:28.449Z,14.89
2023-02-09T10:16:50.554Z,12.38
2023-02-09T10:18:13.604Z,12.77
2023-02-09T10:19:34.583Z,12.08
2023-02-09T10:21:03.420Z,11.09
2023-02-09T10:22:24.809Z,12.67
2023-02-09T10:25:03.808Z,12.36
2023-02-09T10:26:33.278Z,12.32
2023-02-09T10:27:56.864Z,12.37
2023-02-09T10:30:57.490Z,10.41
2023-02-09T10:33:41.574Z,11.33
2023-02-09T10:35:03.677Z,12.51
2023-02-09T10:36:30.966Z,11.70
2023-02-09T10:38:00.139Z,12.26
2023-02-09T10:39:23.744Z,12.18
2023-02-09T10:40:48.580Z,12.68
2023-02-09T10:42:23.862Z,12.99
2023-02-09T10:43:50.587Z,12.42
2023-02-09T10:45:14.625Z,13.07
2023-02-09T10:46:39.146Z,12.52
2023-02-09T10:48:30.045Z,12.42
2023-02-09T10:52:26.240Z,15.48
2023-02-09T11:46:31.640Z,8.74
2023-02-09T12:00:22.702Z,6.69
2023-02-09T12:07:33.116Z,6.46
2023-02-09T12:10:54.927Z,5.90
2023-02-09T12:12:36.391Z,6.23
2023-02-09T12:14:00.412Z,7.02
2023-02-09T12:15:26.058Z,7.11
2023-02-09T12:16:53.769Z,6.79
2023-02-09T12:18:20.099Z,6.64
2023-02-09T12:19:43.850Z,6.64
2023-02-09T12:21:05.319Z,5.97
2023-02-09T12:22:36.398Z,6.51
2023-02-09T12:23:58.997Z,7.49
2023-02-09T12:25:41.049Z,6.08
2023-02-09T12:27:04.087Z,9.61
2023-02-09T12:29:42.427Z,6.73
2023-02-09T12:32:28.685Z,6.61
2023-02-09T12:34:02.706Z,6.37
2023-02-09T12:38:22.677Z,5.64
2023-02-09T12:44:55.989Z,5.75
2023-02-09T12:46:32.540Z,5.52
2023-02-09T12:48:12.365Z,4.96
2023-02-09T12:49:33.796Z,4.91
2023-02-09T12:50:55.177Z,5.96
2023-02-09T12:52:17.755Z,5.82
2023-02-09T12:53:42.121Z,5.99
2023-02-09T12:56:51.009Z,6.26
2023-02-09T12:59:26.001Z,6.78
2023-02-09T13:00:51.187Z,6.27
2023-02-09T13:02:13.822Z,6.24
2023-02-09T13:03:53.025Z,6.57
2023-02-09T13:05:22.725Z,7.19
2023-02-09T13:06:48.377Z,6.92
2023-02-09T13:08:15.675Z,6.47
2023-02-09T13:09:37.888Z,6.74
2023-02-09T13:11:20.998Z,7.13
2023-02-09T13:12:45.443Z,7.04
2023-02-09T13:14:09.722Z,7.11
2023-02-09T13:15:53.285Z,6.95
2023-02-09T13:19:17.205Z,6.60
2023-02-09T13:36:16.234Z,5.72
2023-02-09T13:37:45.840Z,7.43
2023-02-09T13:39:08.098Z,8.14
2023-02-09T13:40:34.917Z,7.81
2023-02-09T13:42:19.797Z,8.31
2023-02-09T13:43:41.426Z,9.34
2023-02-09T13:45:03.009Z,9.22
2023-02-09T13:47:50.023Z,9.13
2023-02-09T13:49:12.400Z,9.95
2023-02-09T13:50:34.182Z,9.92
2023-02-09T13:52:18.701Z,9.86
2023-02-09T13:53:40.510Z,10.58
2023-02-09T13:55:14.300Z,9.87
2023-02-09T13:56:36.422Z,16.24
2023-02-09T13:58:02.326Z,9.96
2023-02-09T13:59:23.358Z,10.77
2023-02-09T14:02:18.043Z,10.02
2023-02-09T14:03:57.450Z,10.38
2023-02-09T14:05:09.648Z,9.25
2023-02-09T14:08:05.170Z,7.76
2023-02-09T14:09:29.913Z,9.43
2023-02-09T14:11:17.393Z,8.93
2023-02-09T14:14:08.320Z,8.93
2023-02-09T14:16:53.876Z,9.87
2023-02-09T14:18:22.223Z,9.09
2023-02-09T14:19:48.363Z,8.97
2023-02-09T14:21:19.974Z,9.79
2023-02-09T14:22:39.099Z,9.57
2023-02-09T14:24:19.663Z,9.09
2023-02-09T14:25:41.476Z,9.27
2023-02-09T14:27:05.163Z,9.73
2023-02-09T14:28:26.508Z,10.14
2023-02-09T14:29:48.138Z,8.99
2023-02-09T14:32:39.731Z,8.86
2023-02-09T14:34:01.464Z,9.18
2023-02-09T14:35:26.967Z,8.80
2023-02-09T14:48:56.130Z,8.42
2023-02-09T14:50:19.585Z,9.39
2023-02-09T14:51:41.430Z,9.37
2023-02-09T14:53:07.271Z,9.87
2023-02-09T14:54:30.304Z,9.77
2023-02-09T14:55:52.921Z,9.65
2023-02-09T14:57:14.214Z,9.16
2023-02-09T14:58:38.665Z,9.51
2023-02-09T14:59:59.902Z,9.81
2023-02-09T15:01:21.201Z,9.44
2023-02-09T15:03:52.413Z,10.51
2023-02-09T15:05:13.987Z,10.11
2023-02-09T15:06:35.542Z,10.48
2023-02-09T15:07:59.401Z,9.77
2023-02-09T15:09:23.626Z,10.09
2023-02-09T15:10:47.803Z,9.60
2023-02-09T15:12:10.858Z,11.58
2023-02-09T15:13:32.066Z,10.58
2023-02-09T15:14:59.113Z,11.99
2023-02-09T15:16:20.078Z,11.44
2023-02-09T15:17:41.215Z,10.92
2023-02-09T15:19:02.808Z,10.58
2023-02-09T15:20:23.993Z,10.45
2023-02-09T15:21:50.694Z,11.18
2023-02-09T15:23:09.214Z,10.54
2023-02-09T15:24:30.206Z,12.19
2023-02-09T15:25:51.350Z,10.29
2023-02-09T15:27:14.392Z,11.00
2023-02-09T15:28:35.734Z,11.11
2023-02-09T15:29:59.490Z,10.68
2023-02-09T15:31:20.144Z,10.63
2023-02-09T15:32:41.412Z,9.81
2023-02-09T15:34:04.008Z,9.53
2023-02-09T15:35:25.746Z,11.03
2023-02-09T15:36:47.166Z,9.68
2023-02-09T15:38:09.040Z,10.84
2023-02-09T15:40:47.797Z,10.74
2023-02-09T15:42:12.923Z,13.57
2023-02-09T15:43:34.231Z,11.36
2023-02-09T15:44:55.818Z,11.31
2023-02-09T15:46:17.745Z,12.30
2023-02-09T15:47:38.774Z,12.19
2023-02-09T15:49:00.467Z,13.38
2023-02-09T15:50:21.649Z,13.42
2023-02-09T15:51:42.934Z,26.48
2023-02-09T15:53:07.222Z,13.07
2023-02-09T15:54:30.262Z,12.11
2023-02-09T15:55:54.803Z,13.42
2023-02-09T15:57:16.246Z,12.58
2023-02-09T15:58:39.183Z,12.50
2023-02-09T16:00:00.262Z,13.12
2023-02-09T16:02:44.530Z,11.94
2023-02-09T16:04:13.908Z,13.55
2023-02-09T16:05:29.152Z,12.86
2023-02-09T16:06:52.016Z,12.54
2023-02-09T16:08:21.719Z,14.39
2023-02-09T16:09:43.138Z,13.38
2023-02-09T16:12:16.142Z,16.65
2023-02-09T16:13:37.673Z,15.19
2023-02-09T16:14:59.444Z,14.25
2023-02-09T16:16:20.948Z,13.26
2023-02-09T16:17:42.102Z,13.87
2023-02-09T16:19:03.786Z,13.02
2023-02-09T16:20:26.302Z,12.97
2023-02-09T16:21:50.187Z,14.23
2023-02-09T16:23:20.767Z,13.49
2023-02-09T16:24:42.986Z,13.11
2023-02-09T16:26:04.555Z,14.06
2023-02-09T16:27:26.851Z,14.01
2023-02-09T16:28:47.931Z,16.33
2023-02-09T16:30:15.507Z,14.13
2023-02-09T16:31:37.048Z,15.48
2023-02-09T16:32:58.768Z,14.03
2023-02-09T16:34:21.632Z,13.91
2023-02-09T16:35:42.689Z,13.32
2023-02-09T16:37:03.654Z,14.53
2023-02-09T16:38:24.941Z,13.70
2023-02-09T16:39:46.162Z,13.53
2023-02-09T16:41:09.600Z,14.04
2023-02-09T16:42:30.986Z,14.07
2023-02-09T16:43:52.389Z,14.17
2023-02-09T16:46:23.518Z,14.40
2023-02-09T16:47:46.951Z,14.65
2023-02-09T16:49:11.883Z,14.08
2023-02-09T16:50:35.407Z,13.86
2023-02-09T16:51:57.510Z,14.08
2023-02-09T16:53:22.011Z,13.92
2023-02-09T16:55:56.135Z,15.46
2023-02-09T16:57:18.603Z,15.59
2023-02-09T16:58:39.679Z,15.44
2023-02-09T17:00:01.125Z,15.03
2023-02-09T17:01:23.322Z,12.47
2023-02-09T17:04:09.195Z,13.56
2023-02-09T17:05:32.043Z,13.95
2023-02-09T17:06:53.627Z,15.13
2023-02-09T17:08:17.654Z,17.31
2023-02-09T17:09:38.640Z,16.66
2023-02-09T17:11:01.434Z,23.14
2023-02-09T17:12:26.004Z,19.50
2023-02-09T17:13:47.541Z,21.60
2023-02-09T17:15:23.897Z,28.68
2023-02-09T17:16:37.044Z,24.76
2023-02-09T17:18:03.704Z,23.34
2023-02-09T17:19:24.690Z,20.95
2023-02-09T17:20:49.402Z,18.03
2023-02-09T17:22:11.099Z,17.33
2023-02-09T17:23:32.051Z,17.56
2023-02-09T17:24:53.318Z,15.54
2023-02-09T17:26:15.140Z,15.02
2023-02-09T17:27:36.390Z,21.14
2023-02-09T17:28:57.606Z,28.12
2023-02-09T17:30:19.257Z,21.21
2023-02-09T17:31:52.491Z,21.74
2023-02-09T17:33:05.988Z,16.72
2023-02-09T17:34:27.433Z,17.37
2023-02-09T17:36:18.822Z,17.64
2023-02-09T17:37:13.511Z,17.63
2023-02-09T17:38:35.858Z,17.81
2023-02-09T17:39:56.961Z,18.02
2023-02-09T17:41:33.931Z,17.51
2023-02-09T17:42:55.032Z,17.82
2023-02-09T17:44:46.155Z,17.46
2023-02-09T17:45:44.169Z,17.29
2023-02-09T17:47:05.241Z,17.83
2023-02-09T17:48:26.240Z,17.79
2023-02-09T17:49:48.227Z,18.09
2023-02-09T17:51:21.192Z,17.71
2023-02-09T17:52:42.169Z,17.28
2023-02-09T17:54:03.865Z,18.07
2023-02-09T17:56:48.331Z,17.56
2023-02-09T17:58:09.547Z,18.13
2023-02-09T17:59:30.804Z,17.29
2023-02-09T18:00:51.991Z,17.38
2023-02-09T18:02:15.005Z,17.68
2023-02-09T18:03:36.012Z,18.84
2023-02-09T18:04:57.587Z,17.47
2023-02-09T18:06:20.319Z,35.58
2023-02-09T18:07:41.302Z,25.92
2023-02-09T18:09:04.144Z,21.10
2023-02-09T18:10:25.210Z,25.11
2023-02-09T18:11:54.875Z,20.99
2023-02-09T18:13:17.394Z,22.61
2023-02-09T18:14:38.752Z,21.16
2023-02-09T18:15:59.754Z,21.44
2023-02-09T18:17:20.655Z,20.62
2023-02-09T18:18:41.620Z,19.24
2023-02-09T18:20:03.381Z,18.61
2023-02-09T18:21:24.600Z,19.32
2023-02-09T18:22:45.533Z,18.31
2023-02-09T18:24:06.916Z,18.07
2023-02-09T18:26:41.948Z,17.90
2023-02-09T18:28:04.331Z,18.77
2023-02-09T18:29:26.772Z,17.89
2023-02-09T18:30:48.141Z,18.83
2023-02-09T18:32:10.962Z,20.01
2023-02-09T18:33:32.418Z,20.31
2023-02-09T18:34:53.521Z,20.48
2023-02-09T18:36:14.868Z,20.87
2023-02-09T18:37:35.812Z,19.30
2023-02-09T18:38:57.300Z,18.47
2023-02-09T18:40:18.666Z,19.28
2023-02-09T18:41:39.920Z,18.77
2023-02-09T18:43:01.791Z,20.51
2023-02-09T18:44:22.954Z,18.98
2023-02-09T18:45:45.042Z,20.16
2023-02-09T18:47:06.679Z,20.63
2023-02-09T18:48:28.123Z,21.05
2023-02-09T18:49:49.446Z,21.36
2023-02-09T18:51:10.381Z,21.02
2023-02-09T18:52:31.936Z,21.64
2023-02-09T18:53:53.182Z,21.09
2023-02-09T18:55:14.601Z,21.21
2023-02-09T18:56:35.823Z,23.20
2023-02-09T18:57:58.204Z,21.49
2023-02-09T18:59:19.522Z,23.43
2023-02-09T19:00:41.080Z,23.03
2023-02-09T19:02:02.443Z,20.85
2023-02-09T19:03:23.724Z,21.21
2023-02-09T19:04:44.892Z,19.99
2023-02-09T19:07:22.794Z,20.08
2023-02-09T19:08:44.336Z,20.73
2023-02-09T19:10:06.514Z,19.26
2023-02-09T19:11:27.833Z,19.37
2023-02-09T19:12:49.306Z,19.62
2023-02-09T19:14:10.698Z,20.03
2023-02-09T19:15:32.935Z,21.42
2023-02-09T19:16:54.175Z,19.38
2023-02-09T19:18:15.638Z,18.69
2023-02-09T19:19:37.173Z,20.33
2023-02-09T19:20:58.311Z,20.01
2023-02-09T19:22:20.123Z,20.48
2023-02-09T19:23:41.280Z,22.14
2023-02-09T19:25:02.688Z,22.10
2023-02-09T19:26:24.157Z,20.13
2023-02-09T19:27:45.433Z,20.38
2023-02-09T19:29:06.910Z,20.57
2023-02-09T19:30:28.002Z,20.22
2023-02-09T19:31:49.214Z,22.43
2023-02-09T19:33:10.864Z,21.33
2023-02-09T19:34:32.538Z,20.61
2023-02-09T19:35:58.019Z,20.84
2023-02-09T19:37:19.413Z,20.41
2023-02-09T19:38:40.513Z,19.78
2023-02-09T19:40:01.965Z,19.66
2023-02-09T19:41:23.447Z,19.13
2023-02-09T19:42:44.713Z,19.63
2023-02-09T19:44:06.211Z,19.17
2023-02-09T19:45:27.554Z,19.31
2023-02-09T19:46:48.796Z,19.61
2023-02-09T19:48:10.337Z,19.40
2023-02-09T19:50:56.125Z,17.15
2023-02-09T19:52:17.223Z,18.17
2023-02-09T19:53:38.303Z,19.55
2023-02-09T19:54:59.624Z,20.63
2023-02-09T19:56:20.933Z,25.66
2023-02-09T19:57:42.065Z,24.73
2023-02-09T19:59:03.212Z,23.82
2023-02-09T20:00:24.624Z,21.13
2023-02-09T20:01:45.697Z,20.49
2023-02-09T20:03:07.099Z,18.32
2023-02-09T20:04:28.474Z,17.96
2023-02-09T20:05:50.212Z,16.62
2023-02-09T20:07:12.067Z,16.49
2023-02-09T20:08:33.172Z,15.86
2023-02-09T20:09:54.763Z,18.28
2023-02-09T20:11:17.592Z,17.58
2023-02-09T20:12:38.618Z,17.61
2023-02-09T20:15:21.937Z,16.71
2023-02-09T20:16:43.486Z,16.50
2023-02-09T20:18:04.575Z,17.07
2023-02-09T20:19:25.826Z,17.06
2023-02-09T20:20:47.777Z,15.93
2023-02-09T20:22:09.241Z,15.66
2023-02-09T20:23:30.583Z,15.77
2023-02-09T20:24:51.609Z,16.01
2023-02-09T20:26:18.711Z,13.09
2023-02-09T20:27:40.246Z,17.68
2023-02-09T20:29:02.049Z,16.87
2023-02-09T20:30:23.270Z,16.77
2023-02-09T20:31:44.592Z,16.36
2023-02-09T20:33:05.995Z,16.32
2023-02-09T20:34:27.017Z,16.79
2023-02-09T20:35:48.330Z,16.27
2023-02-09T20:37:09.547Z,16.77
2023-02-09T20:38:30.553Z,24.21
2023-02-09T20:39:51.603Z,32.81
2023-02-09T20:41:14.761Z,20.91